createdAt,value
2018-06-24T00:00:31.017Z,0
2018-06-24T00:01:31.588Z,0
2018-06-24T00:02:32.159Z,0
2018-06-24T00:03:32.729Z,0
2018-06-24T00:04:33.302Z,0
2018-06-24T00:05:33.873Z,0
2018-06-24T00:06:34.456Z,0
2018-06-24T00:07:35.035Z,0
2018-06-24T00:08:35.605Z,0
2018-06-24T00:09:36.177Z,0
2018-06-24T00:10:36.747Z,0
2018-06-24T00:11:37.320Z,0
2018-06-24T00:12:37.892Z,0
2018-06-24T00:13:38.466Z,0
2018-06-24T00:14:39.037Z,0
2018-06-24T00:15:39.608Z,0
2018-06-24T00:16:40.192Z,0
2018-06-24T00:17:40.773Z,0
2018-06-24T00:18:41.346Z,0
2018-06-24T00:19:41.919Z,0
2018-06-24T00:20:42.503Z,0
2018-06-24T00:21:43.072Z,0
2018-06-24T00:22:43.647Z,0
2018-06-24T00:23:44.229Z,0
2018-06-24T00:24:44.799Z,0
2018-06-24T00:25:45.370Z,0
2018-06-24T00:26:45.943Z,0
2018-06-24T00:27:46.527Z,0
2018-06-24T00:28:47.096Z,0
2018-06-24T00:29:47.670Z,0
2018-06-24T00:30:48.244Z,0
2018-06-24T00:31:48.824Z,0
2018-06-24T00:32:49.397Z,0
2018-06-24T00:33:49.970Z,0
2018-06-24T00:34:50.544Z,0
2018-06-24T00:35:51.115Z,0
2018-06-24T00:36:51.688Z,0
2018-06-24T00:37:52.268Z,0
2018-06-24T00:38:52.839Z,0
2018-06-24T00:39:53.412Z,0
2018-06-24T00:40:53.986Z,0
2018-06-24T00:41:54.559Z,0
2018-06-24T00:42:55.131Z,0
2018-06-24T00:43:55.704Z,0
2018-06-24T00:44:56.276Z,0
2018-06-24T00:45:56.849Z,0
2018-06-24T00:46:57.420Z,0
2018-06-24T00:47:57.992Z,0
2018-06-24T00:48:58.564Z,0
2018-06-24T00:49:59.137Z,0
2018-06-24T00:50:59.709Z,0
2018-06-24T00:52:00.281Z,0
2018-06-24T00:53:00.855Z,0
2018-06-24T00:54:01.428Z,0
2018-06-24T00:55:02.002Z,0
2018-06-24T00:56:02.576Z,0
2018-06-24T00:57:03.147Z,0
2018-06-24T00:58:03.717Z,0
2018-06-24T00:59:04.290Z,0
2018-06-24T01:00:04.861Z,0
2018-06-24T01:01:05.431Z,0
2018-06-24T01:02:06.003Z,0
2018-06-24T01:03:06.575Z,0
2018-06-24T01:04:07.146Z,0
2018-06-24T01:05:07.724Z,0
2018-06-24T01:06:08.292Z,0
2018-06-24T01:07:08.860Z,0
2018-06-24T01:08:09.431Z,0
2018-06-24T01:09:10.003Z,0
2018-06-24T01:10:10.573Z,0
2018-06-24T01:11:11.143Z,0
2018-06-24T01:12:11.716Z,0
2018-06-24T01:13:12.288Z,0
2018-06-24T01:14:12.861Z,0
2018-06-24T01:15:13.432Z,0
2018-06-24T01:16:14.006Z,0
2018-06-24T01:17:14.577Z,0
2018-06-24T01:18:15.150Z,0
2018-06-24T01:19:15.722Z,0
2018-06-24T01:20:16.295Z,0
2018-06-24T01:21:16.865Z,0
2018-06-24T01:22:17.437Z,0
2018-06-24T01:23:18.009Z,0
2018-06-24T01:24:18.578Z,0
2018-06-24T01:25:19.151Z,0
2018-06-24T01:26:19.734Z,0
2018-06-24T01:27:20.306Z,0
2018-06-24T01:28:20.876Z,0
2018-06-24T01:29:21.449Z,0
2018-06-24T01:30:22.021Z,0
2018-06-24T01:31:22.602Z,0
2018-06-24T01:32:23.176Z,0
2018-06-24T01:33:23.747Z,0
2018-06-24T01:34:24.320Z,0
2018-06-24T01:35:24.891Z,0
2018-06-24T01:36:25.465Z,0
2018-06-24T01:37:26.056Z,0
2018-06-24T01:38:26.606Z,0
2018-06-24T01:39:27.178Z,0
2018-06-24T01:41:43.211Z,0
2018-06-24T01:42:43.783Z,0
2018-06-24T01:43:44.358Z,0
2018-06-24T01:44:44.928Z,0
2018-06-24T01:45:45.498Z,0
2018-06-24T01:46:46.082Z,0
2018-06-24T01:47:46.666Z,0
2018-06-24T01:48:47.248Z,0
2018-06-24T01:49:47.821Z,0
2018-06-24T01:50:48.392Z,0
2018-06-24T01:51:48.964Z,0
2018-06-24T01:52:49.537Z,0
2018-06-24T01:53:50.111Z,0
2018-06-24T01:54:50.687Z,0
2018-06-24T01:55:51.257Z,0
2018-06-24T01:56:51.840Z,0
2018-06-24T01:57:52.454Z,0
2018-06-24T01:58:52.987Z,0
2018-06-24T01:59:53.569Z,0
2018-06-24T02:00:54.144Z,0
2018-06-24T02:01:54.716Z,0
2018-06-24T02:02:55.289Z,0
2018-06-24T02:03:55.862Z,0
2018-06-24T02:04:56.436Z,0
2018-06-24T02:05:57.008Z,0
2018-06-24T02:06:57.579Z,0
2018-06-24T02:07:58.152Z,0
2018-06-24T02:08:58.723Z,0
2018-06-24T02:09:59.294Z,0
2018-06-24T02:10:59.869Z,0
2018-06-24T02:12:00.443Z,0
2018-06-24T02:13:01.022Z,0
2018-06-24T02:14:01.588Z,0
2018-06-24T02:15:02.171Z,0
2018-06-24T02:16:02.745Z,0
2018-06-24T02:17:03.318Z,0
2018-06-24T02:18:03.892Z,0
2018-06-24T02:19:04.463Z,0
2018-06-24T02:20:05.036Z,0
2018-06-24T02:21:05.606Z,0
2018-06-24T02:22:06.190Z,0
2018-06-24T02:23:06.764Z,0
2018-06-24T02:24:07.337Z,0
2018-06-24T02:25:07.907Z,0
2018-06-24T02:26:08.478Z,0
2018-06-24T02:27:09.051Z,0
2018-06-24T02:28:09.621Z,0
2018-06-24T02:29:10.194Z,0
2018-06-24T02:30:10.766Z,0
2018-06-24T02:31:11.355Z,0
2018-06-24T02:32:11.924Z,0
2018-06-24T02:33:12.494Z,0
2018-06-24T02:34:13.067Z,0
2018-06-24T02:35:13.640Z,0
2018-06-24T02:36:14.212Z,0
2018-06-24T02:37:14.787Z,0
2018-06-24T02:38:15.358Z,0
2018-06-24T02:39:15.933Z,0
2018-06-24T02:40:16.514Z,0
2018-06-24T02:41:17.089Z,0
2018-06-24T02:42:17.665Z,0
2018-06-24T02:43:18.246Z,0
2018-06-24T02:44:18.807Z,0
2018-06-24T02:45:19.377Z,0
2018-06-24T02:46:19.949Z,0
2018-06-24T02:47:20.527Z,0
2018-06-24T02:48:21.093Z,0
2018-06-24T02:49:21.664Z,0
2018-06-24T02:50:22.235Z,0
2018-06-24T02:51:22.806Z,0
2018-06-24T02:52:23.378Z,0
2018-06-24T02:53:23.951Z,0
2018-06-24T02:54:24.524Z,0
2018-06-24T02:55:25.106Z,0
2018-06-24T02:56:25.688Z,0
2018-06-24T02:57:26.260Z,0
2018-06-24T02:58:26.834Z,0
2018-06-24T02:59:27.406Z,0
2018-06-24T03:00:27.979Z,0
2018-06-24T03:01:28.550Z,0
2018-06-24T03:02:29.123Z,0
2018-06-24T03:03:29.694Z,0
2018-06-24T03:04:30.273Z,0
2018-06-24T03:05:30.851Z,0
2018-06-24T03:06:31.423Z,0
2018-06-24T03:07:31.996Z,0
2018-06-24T03:08:32.576Z,0
2018-06-24T03:09:33.162Z,0
2018-06-24T03:10:33.734Z,0
2018-06-24T03:11:34.306Z,0
2018-06-24T03:12:34.892Z,0
2018-06-24T03:13:35.464Z,0
2018-06-24T03:14:36.037Z,0
2018-06-24T03:15:36.621Z,0
2018-06-24T03:16:37.194Z,0
2018-06-24T03:17:37.766Z,0
2018-06-24T03:18:38.350Z,0
2018-06-24T03:19:38.921Z,0
2018-06-24T03:20:39.496Z,0
2018-06-24T03:21:40.076Z,0
2018-06-24T03:22:40.651Z,0
2018-06-24T03:23:41.221Z,0
2018-06-24T03:24:41.799Z,0
2018-06-24T03:25:42.367Z,0
2018-06-24T03:26:42.946Z,0
2018-06-24T03:27:43.513Z,0
2018-06-24T03:28:44.088Z,0
2018-06-24T03:29:44.666Z,0
2018-06-24T03:30:45.244Z,0
2018-06-24T03:31:45.819Z,0
2018-06-24T03:32:46.397Z,0
2018-06-24T03:33:46.968Z,0
2018-06-24T03:34:47.542Z,0
2018-06-24T03:35:48.114Z,0
2018-06-24T03:36:48.688Z,0
2018-06-24T03:37:49.273Z,0
2018-06-24T03:38:49.847Z,0
2018-06-24T03:39:50.420Z,0
2018-06-24T03:40:50.995Z,0
2018-06-24T03:41:51.570Z,0
2018-06-24T03:42:52.144Z,0
2018-06-24T03:43:52.730Z,0
2018-06-24T03:44:53.367Z,0
2018-06-24T03:45:53.950Z,0
2018-06-24T03:46:54.534Z,0
2018-06-24T03:47:55.110Z,0
2018-06-24T03:48:55.691Z,0
2018-06-24T03:49:56.263Z,0
2018-06-24T03:50:56.849Z,0
2018-06-24T03:51:57.424Z,0
2018-06-24T03:52:57.997Z,0
2018-06-24T03:53:58.581Z,0
2018-06-24T03:54:59.157Z,0
2018-06-24T03:55:59.728Z,0
2018-06-24T03:57:00.303Z,0
2018-06-24T03:58:00.906Z,0
2018-06-24T03:59:01.448Z,0
2018-06-24T04:00:02.022Z,0
2018-06-24T04:01:02.599Z,0
2018-06-24T04:02:03.169Z,0
2018-06-24T04:03:03.754Z,0
2018-06-24T04:04:04.328Z,0
2018-06-24T04:05:04.904Z,0
2018-06-24T04:06:05.481Z,0
2018-06-24T04:07:06.050Z,0
2018-06-24T04:08:06.622Z,0
2018-06-24T04:09:07.199Z,0
2018-06-24T04:10:07.769Z,0
2018-06-24T04:11:08.352Z,0
2018-06-24T04:12:08.931Z,0
2018-06-24T04:13:09.499Z,0
2018-06-24T04:14:10.073Z,0
2018-06-24T04:15:10.647Z,0
2018-06-24T04:16:11.221Z,0
2018-06-24T04:17:11.796Z,0
2018-06-24T04:18:12.368Z,0
2018-06-24T04:19:12.942Z,0
2018-06-24T04:20:13.514Z,0
2018-06-24T04:21:14.089Z,0
2018-06-24T04:22:14.663Z,0
2018-06-24T04:23:15.236Z,0
2018-06-24T04:24:15.811Z,0
2018-06-24T04:25:16.382Z,0
2018-06-24T04:26:16.955Z,0
2018-06-24T04:27:17.528Z,5
2018-06-24T04:28:18.100Z,5
2018-06-24T04:29:18.676Z,5
2018-06-24T04:30:19.250Z,5
2018-06-24T04:31:19.824Z,5
2018-06-24T04:32:20.401Z,5
2018-06-24T04:33:20.981Z,5
2018-06-24T04:34:21.555Z,5
2018-06-24T04:35:22.129Z,5
2018-06-24T04:36:22.703Z,5
2018-06-24T04:37:23.279Z,5
2018-06-24T04:38:23.853Z,5
2018-06-24T04:39:24.430Z,5
2018-06-24T04:40:25.014Z,5
2018-06-24T04:41:25.600Z,5
2018-06-24T04:42:26.184Z,5
2018-06-24T04:43:26.758Z,5
2018-06-24T04:44:27.386Z,5
2018-06-24T04:45:27.918Z,5
2018-06-24T04:46:28.491Z,5
2018-06-24T04:47:29.067Z,5
2018-06-24T04:48:29.640Z,5
2018-06-24T04:49:30.226Z,5
2018-06-24T04:50:30.802Z,5
2018-06-24T04:51:31.389Z,5
2018-06-24T04:52:31.970Z,5
2018-06-24T04:53:32.548Z,5
2018-06-24T04:54:33.116Z,5
2018-06-24T04:55:33.692Z,5
2018-06-24T04:56:34.266Z,5
2018-06-24T04:57:34.840Z,5
2018-06-24T04:58:35.413Z,5
2018-06-24T04:59:35.986Z,5
2018-06-24T05:00:36.571Z,5
2018-06-24T05:01:37.145Z,5
2018-06-24T05:02:37.730Z,5
2018-06-24T05:03:38.304Z,5
2018-06-24T05:04:38.891Z,5
2018-06-24T05:05:39.466Z,5
2018-06-24T05:06:40.042Z,5
2018-06-24T05:07:40.627Z,5
2018-06-24T05:08:41.211Z,5
2018-06-24T05:09:41.788Z,5
2018-06-24T05:10:42.374Z,5
2018-06-24T05:11:42.947Z,5
2018-06-24T05:12:43.534Z,5
2018-06-24T05:13:44.116Z,5
2018-06-24T05:14:44.703Z,5
2018-06-24T05:15:45.290Z,5
2018-06-24T05:16:45.861Z,5
2018-06-24T05:17:46.437Z,5
2018-06-24T05:18:47.011Z,10
2018-06-24T05:19:47.586Z,10
2018-06-24T05:20:48.164Z,10
2018-06-24T05:21:48.738Z,10
2018-06-24T05:22:49.312Z,10
2018-06-24T05:23:49.887Z,10
2018-06-24T05:24:50.464Z,10
2018-06-24T05:25:51.042Z,10
2018-06-24T05:26:51.617Z,10
2018-06-24T05:27:52.193Z,10
2018-06-24T05:28:52.769Z,10
2018-06-24T05:29:53.355Z,10
2018-06-24T05:30:53.932Z,10
2018-06-24T05:31:54.507Z,10
2018-06-24T05:32:55.081Z,10
2018-06-24T05:33:55.657Z,10
2018-06-24T05:34:56.233Z,10
2018-06-24T05:35:56.807Z,10
2018-06-24T05:36:57.381Z,10
2018-06-24T05:37:57.955Z,10
2018-06-24T05:38:58.531Z,10
2018-06-24T05:39:59.108Z,10
2018-06-24T05:40:59.683Z,15
2018-06-24T05:42:00.256Z,10
2018-06-24T05:43:00.847Z,10
2018-06-24T05:44:01.408Z,10
2018-06-24T05:45:01.983Z,10
2018-06-24T05:46:02.557Z,10
2018-06-24T05:47:03.133Z,15
2018-06-24T05:48:03.711Z,15
2018-06-24T05:49:04.286Z,10
2018-06-24T05:50:04.860Z,10
2018-06-24T05:51:05.437Z,10
2018-06-24T05:52:06.012Z,10
2018-06-24T05:53:06.588Z,10
2018-06-24T05:54:07.163Z,10
2018-06-24T05:55:07.739Z,10
2018-06-24T05:56:08.323Z,10
2018-06-24T05:57:08.898Z,10
2018-06-24T05:58:09.474Z,15
2018-06-24T05:59:10.050Z,15
2018-06-24T06:00:10.629Z,15
2018-06-24T06:01:11.202Z,15
2018-06-24T06:02:11.779Z,15
2018-06-24T06:03:12.354Z,15
2018-06-24T06:04:12.930Z,15
2018-06-24T06:05:13.508Z,15
2018-06-24T06:06:14.083Z,15
2018-06-24T06:07:14.659Z,15
2018-06-24T06:08:15.244Z,15
2018-06-24T06:09:15.833Z,15
2018-06-24T06:10:16.495Z,15
2018-06-24T06:11:16.994Z,15
2018-06-24T06:12:17.571Z,15
2018-06-24T06:13:18.149Z,15
2018-06-24T06:14:18.721Z,15
2018-06-24T06:15:19.317Z,10
2018-06-24T06:16:19.884Z,10
2018-06-24T06:17:20.459Z,10
2018-06-24T06:18:21.036Z,10
2018-06-24T06:19:21.611Z,10
2018-06-24T06:20:22.186Z,10
2018-06-24T06:21:22.763Z,10
2018-06-24T06:22:23.337Z,10
2018-06-24T06:23:23.914Z,10
2018-06-24T06:24:24.489Z,10
2018-06-24T06:25:25.066Z,15
2018-06-24T06:26:25.644Z,15
2018-06-24T06:27:26.221Z,15
2018-06-24T06:28:26.795Z,15
2018-06-24T06:29:27.380Z,15
2018-06-24T06:30:27.954Z,15
2018-06-24T06:31:28.531Z,15
2018-06-24T06:32:29.113Z,20
2018-06-24T06:33:29.690Z,20
2018-06-24T06:34:30.265Z,20
2018-06-24T06:35:30.842Z,20
2018-06-24T06:36:31.416Z,20
2018-06-24T06:37:31.992Z,20
2018-06-24T06:38:32.568Z,20
2018-06-24T06:39:33.143Z,20
2018-06-24T06:40:33.718Z,15
2018-06-24T06:41:34.299Z,15
2018-06-24T06:42:34.881Z,15
2018-06-24T06:43:35.464Z,15
2018-06-24T06:44:36.038Z,15
2018-06-24T06:45:36.811Z,20
2018-06-24T06:46:37.189Z,20
2018-06-24T06:47:37.766Z,20
2018-06-24T06:48:38.341Z,20
2018-06-24T06:49:38.919Z,20
2018-06-24T06:50:39.495Z,20
2018-06-24T06:51:40.070Z,20
2018-06-24T06:52:40.645Z,20
2018-06-24T06:53:41.235Z,20
2018-06-24T06:54:41.807Z,15
2018-06-24T06:55:42.382Z,15
2018-06-24T06:56:42.960Z,15
2018-06-24T06:57:43.584Z,15
2018-06-24T06:58:44.111Z,15
2018-06-24T06:59:44.686Z,15
2018-06-24T07:00:45.262Z,15
2018-06-24T07:01:45.838Z,15
2018-06-24T07:02:46.414Z,15
2018-06-24T07:03:46.991Z,15
2018-06-24T07:04:47.567Z,15
2018-06-24T07:05:48.180Z,15
2018-06-24T07:06:48.728Z,15
2018-06-24T07:07:49.302Z,15
2018-06-24T07:08:49.878Z,15
2018-06-24T07:09:50.463Z,15
2018-06-24T07:10:51.039Z,15
2018-06-24T07:11:51.614Z,15
2018-06-24T07:12:52.191Z,20
2018-06-24T07:13:52.768Z,20
2018-06-24T07:14:53.343Z,20
2018-06-24T07:15:53.921Z,20
2018-06-24T07:16:54.496Z,20
2018-06-24T07:17:55.073Z,20
2018-06-24T07:18:55.648Z,20
2018-06-24T07:19:56.225Z,20
2018-06-24T07:20:56.798Z,20
2018-06-24T07:21:57.376Z,20
2018-06-24T07:22:57.952Z,20
2018-06-24T07:23:58.529Z,20
2018-06-24T07:24:59.106Z,20
2018-06-24T07:25:59.682Z,20
2018-06-24T07:27:00.256Z,20
2018-06-24T07:28:00.831Z,20
2018-06-24T07:29:01.415Z,20
2018-06-24T07:30:01.999Z,20
2018-06-24T07:31:02.577Z,20
2018-06-24T07:32:03.157Z,25
2018-06-24T07:33:03.737Z,20
2018-06-24T07:34:04.312Z,20
2018-06-24T07:35:04.902Z,20
2018-06-24T07:36:05.475Z,20
2018-06-24T07:37:06.060Z,20
2018-06-24T07:38:06.640Z,20
2018-06-24T07:39:07.224Z,20
2018-06-24T07:40:07.787Z,20
2018-06-24T07:41:08.366Z,20
2018-06-24T07:42:08.944Z,20
2018-06-24T07:43:09.532Z,20
2018-06-24T07:44:10.107Z,20
2018-06-24T07:45:10.683Z,20
2018-06-24T07:46:11.260Z,20
2018-06-24T07:47:11.838Z,20
2018-06-24T07:48:12.413Z,15
2018-06-24T07:49:12.990Z,15
2018-06-24T07:50:13.609Z,15
2018-06-24T07:51:14.141Z,20
2018-06-24T07:52:14.717Z,20
2018-06-24T07:53:15.295Z,20
2018-06-24T07:54:15.879Z,20
2018-06-24T07:55:16.455Z,20
2018-06-24T07:56:17.034Z,20
2018-06-24T07:57:17.628Z,20
2018-06-24T07:58:18.209Z,20
2018-06-24T07:59:18.806Z,20
2018-06-24T08:00:19.372Z,25
2018-06-24T08:01:19.949Z,20
2018-06-24T08:02:20.524Z,20
2018-06-24T08:03:21.182Z,20
2018-06-24T08:04:21.675Z,20
2018-06-24T08:05:22.330Z,20
2018-06-24T08:06:22.828Z,20
2018-06-24T08:07:23.415Z,20
2018-06-24T08:08:23.991Z,20
2018-06-24T08:09:24.568Z,20
2018-06-24T08:10:25.143Z,20
2018-06-24T08:11:25.720Z,25
2018-06-24T08:12:26.304Z,25
2018-06-24T08:13:26.873Z,25
2018-06-24T08:14:27.449Z,25
2018-06-24T08:15:28.026Z,25
2018-06-24T08:16:28.601Z,25
2018-06-24T08:17:29.178Z,25
2018-06-24T08:18:29.754Z,25
2018-06-24T08:19:30.329Z,25
2018-06-24T08:20:30.916Z,25
2018-06-24T08:21:31.494Z,25
2018-06-24T08:22:32.069Z,25
2018-06-24T08:23:32.646Z,25
2018-06-24T08:24:33.221Z,30
2018-06-24T08:25:33.797Z,30
2018-06-24T08:26:34.383Z,30
2018-06-24T08:27:34.965Z,30
2018-06-24T08:28:35.536Z,30
2018-06-24T08:29:36.114Z,30
2018-06-24T08:30:36.689Z,30
2018-06-24T08:31:37.285Z,30
2018-06-24T08:32:37.849Z,30
2018-06-24T08:33:38.424Z,30
2018-06-24T08:34:39.001Z,30
2018-06-24T08:35:39.580Z,30
2018-06-24T08:36:40.155Z,30
2018-06-24T08:37:40.731Z,30
2018-06-24T08:38:41.312Z,30
2018-06-24T08:39:41.910Z,30
2018-06-24T08:40:42.485Z,30
2018-06-24T08:41:43.062Z,30
2018-06-24T08:42:43.640Z,30
2018-06-24T08:43:44.216Z,30
2018-06-24T08:44:44.791Z,30
2018-06-24T08:45:45.370Z,30
2018-06-24T08:46:46.015Z,30
2018-06-24T08:47:46.527Z,30
2018-06-24T08:48:47.111Z,25
2018-06-24T08:49:47.687Z,25
2018-06-24T08:50:48.264Z,25
2018-06-24T08:51:48.840Z,30
2018-06-24T08:52:49.416Z,30
2018-06-24T08:53:49.992Z,25
2018-06-24T08:54:50.569Z,25
2018-06-24T08:55:51.145Z,20
2018-06-24T08:56:51.723Z,20
2018-06-24T08:57:52.299Z,20
2018-06-24T08:58:52.876Z,15
2018-06-24T08:59:53.453Z,20
2018-06-24T09:00:54.028Z,20
2018-06-24T09:01:54.603Z,20
2018-06-24T09:02:55.180Z,20
2018-06-24T09:03:55.756Z,20
2018-06-24T09:04:56.335Z,25
2018-06-24T09:05:56.911Z,30
2018-06-24T09:06:57.498Z,30
2018-06-24T09:07:58.129Z,30
2018-06-24T09:08:58.659Z,35
2018-06-24T09:09:59.233Z,35
2018-06-24T09:10:59.811Z,35
2018-06-24T09:12:00.390Z,35
2018-06-24T09:13:00.965Z,30
2018-06-24T09:14:01.556Z,30
2018-06-24T09:15:02.131Z,30
2018-06-24T09:16:02.706Z,25
2018-06-24T09:17:03.300Z,25
2018-06-24T09:18:03.891Z,25
2018-06-24T09:19:04.465Z,20
2018-06-24T09:20:05.043Z,25
2018-06-24T09:21:05.619Z,25
2018-06-24T09:22:06.249Z,25
2018-06-24T09:23:06.771Z,25
2018-06-24T09:24:07.348Z,30
2018-06-24T09:25:07.926Z,35
2018-06-24T09:26:08.504Z,35
2018-06-24T09:27:09.079Z,35
2018-06-24T09:28:09.667Z,35
2018-06-24T09:29:10.252Z,35
2018-06-24T09:30:10.839Z,30
2018-06-24T09:31:11.415Z,30
2018-06-24T09:32:11.991Z,30
2018-06-24T09:33:12.568Z,30
2018-06-24T09:34:13.144Z,35
2018-06-24T09:35:13.732Z,30
2018-06-24T09:36:14.307Z,30
2018-06-24T09:37:14.884Z,30
2018-06-24T09:38:15.462Z,25
2018-06-24T09:39:16.037Z,25
2018-06-24T09:40:16.623Z,25
2018-06-24T09:41:17.200Z,25
2018-06-24T09:42:17.777Z,25
2018-06-24T09:43:18.357Z,25
2018-06-24T09:44:18.932Z,25
2018-06-24T09:45:19.509Z,25
2018-06-24T09:46:20.086Z,25
2018-06-24T09:47:20.664Z,25
2018-06-24T09:48:21.239Z,25
2018-06-24T09:49:21.818Z,25
2018-06-24T09:50:22.393Z,25
2018-06-24T09:51:22.972Z,25
2018-06-24T09:52:23.560Z,25
2018-06-24T09:53:24.150Z,25
2018-06-24T09:54:24.729Z,25
2018-06-24T09:55:25.305Z,25
2018-06-24T09:56:25.882Z,30
2018-06-24T09:57:26.460Z,30
2018-06-24T09:58:27.037Z,30
2018-06-24T09:59:27.612Z,35
2018-06-24T10:00:28.189Z,30
2018-06-24T10:01:28.766Z,30
2018-06-24T10:02:29.345Z,30
2018-06-24T10:03:29.923Z,30
2018-06-24T10:04:30.511Z,30
2018-06-24T10:05:31.087Z,35
2018-06-24T10:06:31.664Z,35
2018-06-24T10:07:32.243Z,35
2018-06-24T10:08:32.826Z,35
2018-06-24T10:09:33.403Z,35
2018-06-24T10:10:33.979Z,35
2018-06-24T10:11:34.556Z,30
2018-06-24T10:12:35.132Z,30
2018-06-24T10:13:35.710Z,30
2018-06-24T10:14:36.299Z,30
2018-06-24T10:15:36.879Z,30
2018-06-24T10:16:37.453Z,30
2018-06-24T10:17:38.030Z,30
2018-06-24T10:18:38.607Z,30
2018-06-24T10:19:39.185Z,25
2018-06-24T10:20:39.761Z,25
2018-06-24T10:21:40.338Z,25
2018-06-24T10:22:40.914Z,25
2018-06-24T10:23:41.492Z,25
2018-06-24T10:24:42.068Z,25
2018-06-24T10:25:42.644Z,25
2018-06-24T10:26:43.220Z,20
2018-06-24T10:27:43.797Z,20
2018-06-24T10:28:44.383Z,20
2018-06-24T10:29:44.962Z,25
2018-06-24T10:30:45.538Z,25
2018-06-24T10:31:46.114Z,25
2018-06-24T10:32:46.691Z,30
2018-06-24T10:33:47.269Z,30
2018-06-24T10:34:47.845Z,30
2018-06-24T10:35:48.420Z,35
2018-06-24T10:36:48.997Z,35
2018-06-24T10:37:49.574Z,35
2018-06-24T10:38:50.150Z,35
2018-06-24T10:39:50.728Z,35
2018-06-24T10:40:51.305Z,30
2018-06-24T10:41:51.882Z,30
2018-06-24T10:42:52.469Z,30
2018-06-24T10:43:53.047Z,30
2018-06-24T10:44:53.624Z,30
2018-06-24T10:45:54.212Z,25
2018-06-24T10:46:54.789Z,25
2018-06-24T10:47:55.378Z,25
2018-06-24T10:48:55.966Z,25
2018-06-24T10:49:56.544Z,25
2018-06-24T10:50:57.122Z,25
2018-06-24T10:51:57.712Z,25
2018-06-24T10:52:58.345Z,30
2018-06-24T10:53:58.865Z,30
2018-06-24T10:54:59.446Z,30
2018-06-24T10:56:00.031Z,35
2018-06-24T10:57:00.606Z,35
2018-06-24T10:58:01.185Z,35
2018-06-24T10:59:01.760Z,35
2018-06-24T11:00:02.335Z,35
2018-06-24T11:01:02.916Z,35
2018-06-24T11:02:03.500Z,35
2018-06-24T11:03:04.067Z,35
2018-06-24T11:04:04.644Z,35
2018-06-24T11:05:05.221Z,30
2018-06-24T11:06:05.800Z,30
2018-06-24T11:07:06.377Z,30
2018-06-24T11:08:06.954Z,30
2018-06-24T11:09:07.533Z,30
2018-06-24T11:10:08.109Z,30
2018-06-24T11:11:08.685Z,30
2018-06-24T11:12:09.272Z,35
2018-06-24T11:13:09.849Z,35
2018-06-24T11:14:10.438Z,35
2018-06-24T11:15:11.026Z,35
2018-06-24T11:16:11.603Z,35
2018-06-24T11:17:12.181Z,30
2018-06-24T11:18:12.757Z,30
2018-06-24T11:19:13.372Z,30
2018-06-24T11:20:13.910Z,30
2018-06-24T11:21:14.486Z,25
2018-06-24T11:22:15.064Z,25
2018-06-24T11:23:15.641Z,20
2018-06-24T11:24:16.218Z,20
2018-06-24T11:25:16.795Z,20
2018-06-24T11:26:17.371Z,20
2018-06-24T11:27:17.958Z,25
2018-06-24T11:28:18.536Z,25
2018-06-24T11:29:19.112Z,25
2018-06-24T11:30:19.693Z,25
2018-06-24T11:31:20.266Z,25
2018-06-24T11:32:20.842Z,30
2018-06-24T11:33:21.422Z,30
2018-06-24T11:34:21.999Z,30
2018-06-24T11:35:22.576Z,35
2018-06-24T11:36:23.153Z,35
2018-06-24T11:37:23.730Z,30
2018-06-24T11:38:24.307Z,30
2018-06-24T11:39:24.883Z,35
2018-06-24T11:40:25.461Z,30
2018-06-24T11:41:26.040Z,35
2018-06-24T11:42:26.618Z,35
2018-06-24T11:43:27.192Z,35
2018-06-24T11:44:27.769Z,30
2018-06-24T11:45:28.346Z,30
2018-06-24T11:46:28.923Z,30
2018-06-24T11:47:29.499Z,30
2018-06-24T11:48:30.078Z,30
2018-06-24T11:49:30.655Z,30
2018-06-24T11:50:31.234Z,25
2018-06-24T11:51:31.818Z,25
2018-06-24T11:52:32.396Z,25
2018-06-24T11:53:32.972Z,25
2018-06-24T11:54:33.552Z,25
2018-06-24T11:55:34.127Z,25
2018-06-24T11:56:34.703Z,25
2018-06-24T11:57:35.279Z,25
2018-06-24T11:58:35.858Z,25
2018-06-24T11:59:36.433Z,25
2018-06-24T12:00:37.012Z,25
2018-06-24T12:01:37.590Z,25
2018-06-24T12:02:38.172Z,20
2018-06-24T12:03:38.752Z,20
2018-06-24T12:04:39.331Z,25
2018-06-24T12:05:39.906Z,25
2018-06-24T12:06:40.484Z,25
2018-06-24T12:07:41.064Z,25
2018-06-24T12:08:41.638Z,25
2018-06-24T12:09:42.227Z,20
2018-06-24T12:10:42.838Z,20
2018-06-24T12:11:43.371Z,20
2018-06-24T12:12:43.948Z,20
2018-06-24T12:13:44.527Z,20
2018-06-24T12:14:45.103Z,20
2018-06-24T12:15:45.682Z,20
2018-06-24T12:16:46.259Z,20
2018-06-24T12:17:46.835Z,20
2018-06-24T12:18:47.415Z,20
2018-06-24T12:19:48.009Z,20
2018-06-24T12:20:48.588Z,20
2018-06-24T12:21:49.177Z,20
2018-06-24T12:22:49.754Z,20
2018-06-24T12:23:50.334Z,20
2018-06-24T12:24:50.920Z,20
2018-06-24T12:25:51.496Z,25
2018-06-24T12:26:52.075Z,30
2018-06-24T12:27:52.651Z,35
2018-06-24T12:28:53.229Z,35
2018-06-24T12:29:53.818Z,35
2018-06-24T12:30:54.394Z,30
2018-06-24T12:31:54.970Z,25
2018-06-24T12:32:55.550Z,25
2018-06-24T12:33:56.126Z,25
2018-06-24T12:34:56.706Z,25
2018-06-24T12:35:57.279Z,25
2018-06-24T12:36:57.860Z,25
2018-06-24T12:37:58.436Z,25
2018-06-24T12:38:59.024Z,25
2018-06-24T12:39:59.610Z,25
2018-06-24T12:41:00.189Z,20
2018-06-24T12:42:00.766Z,25
2018-06-24T12:43:01.409Z,25
2018-06-24T12:44:01.932Z,25
2018-06-24T12:45:02.608Z,25
2018-06-24T12:46:03.185Z,25
2018-06-24T12:47:03.764Z,25
2018-06-24T12:48:04.352Z,25
2018-06-24T12:49:04.930Z,25
2018-06-24T12:50:05.507Z,25
2018-06-24T12:51:06.083Z,25
2018-06-24T12:52:06.659Z,25
2018-06-24T12:53:07.247Z,25
2018-06-24T12:54:07.824Z,25
2018-06-24T12:55:08.401Z,25
2018-06-24T12:56:08.982Z,25
2018-06-24T12:57:09.558Z,30
2018-06-24T12:58:10.164Z,30
2018-06-24T12:59:11.014Z,25
2018-06-24T13:00:11.870Z,30
2018-06-24T13:01:11.876Z,25
2018-06-24T13:02:12.453Z,25
2018-06-24T13:03:13.031Z,30
2018-06-24T13:04:13.609Z,30
2018-06-24T13:05:14.188Z,25
2018-06-24T13:06:14.776Z,25
2018-06-24T13:07:15.363Z,25
2018-06-24T13:08:15.939Z,25
2018-06-24T13:09:16.517Z,20
2018-06-24T13:10:17.092Z,20
2018-06-24T13:11:17.668Z,20
2018-06-24T13:12:18.248Z,20
2018-06-24T13:13:18.825Z,20
2018-06-24T13:14:19.401Z,20
2018-06-24T13:15:19.979Z,20
2018-06-24T13:16:20.555Z,20
2018-06-24T13:17:21.133Z,20
2018-06-24T13:18:21.709Z,20
2018-06-24T13:19:22.285Z,20
2018-06-24T13:20:22.864Z,20
2018-06-24T13:21:23.451Z,20
2018-06-24T13:22:24.028Z,20
2018-06-24T13:23:24.605Z,20
2018-06-24T13:24:25.182Z,20
2018-06-24T13:25:25.757Z,20
2018-06-24T13:26:26.334Z,20
2018-06-24T13:27:26.912Z,20
2018-06-24T13:28:27.501Z,20
2018-06-24T13:29:28.080Z,15
2018-06-24T13:30:28.655Z,15
2018-06-24T13:31:29.238Z,15
2018-06-24T13:32:29.820Z,15
2018-06-24T13:33:30.395Z,20
2018-06-24T13:34:30.972Z,15
2018-06-24T13:35:31.550Z,15
2018-06-24T13:36:32.125Z,15
2018-06-24T13:37:32.702Z,15
2018-06-24T13:38:33.289Z,20
2018-06-24T13:39:33.865Z,20
2018-06-24T13:40:34.453Z,15
2018-06-24T13:41:35.029Z,15
2018-06-24T13:42:35.609Z,15
2018-06-24T13:43:36.193Z,15
2018-06-24T13:44:36.771Z,20
2018-06-24T13:45:37.349Z,20
2018-06-24T13:46:37.925Z,20
2018-06-24T13:47:38.501Z,20
2018-06-24T13:48:39.091Z,20
2018-06-24T13:49:39.665Z,20
2018-06-24T13:50:40.253Z,15
2018-06-24T13:51:40.829Z,15
2018-06-24T13:52:41.407Z,15
2018-06-24T13:53:41.983Z,20
2018-06-24T13:54:42.562Z,20
2018-06-24T13:55:43.137Z,20
2018-06-24T13:56:43.722Z,20
2018-06-24T13:57:44.303Z,20
2018-06-24T13:58:44.886Z,20
2018-06-24T13:59:45.461Z,20
2018-06-24T14:00:46.038Z,20
2018-06-24T14:01:46.626Z,20
2018-06-24T14:02:47.202Z,20
2018-06-24T14:03:47.779Z,20
2018-06-24T14:04:48.367Z,20
2018-06-24T14:05:48.945Z,15
2018-06-24T14:06:49.521Z,15
2018-06-24T14:07:50.100Z,15
2018-06-24T14:08:50.674Z,15
2018-06-24T14:09:51.250Z,15
2018-06-24T14:10:51.828Z,15
2018-06-24T14:11:52.404Z,15
2018-06-24T14:12:52.980Z,15
2018-06-24T14:13:53.568Z,15
2018-06-24T14:14:54.143Z,15
2018-06-24T14:15:54.722Z,15
2018-06-24T14:16:55.300Z,15
2018-06-24T14:17:55.876Z,15
2018-06-24T14:18:56.455Z,15
2018-06-24T14:19:57.032Z,15
2018-06-24T14:20:57.620Z,15
2018-06-24T14:21:58.196Z,15
2018-06-24T14:22:58.773Z,15
2018-06-24T14:23:59.348Z,15
2018-06-24T14:24:59.925Z,15
2018-06-24T14:26:00.503Z,15
2018-06-24T14:27:01.079Z,15
2018-06-24T14:28:01.656Z,15
2018-06-24T14:29:02.259Z,15
2018-06-24T14:30:02.810Z,15
2018-06-24T14:31:03.388Z,15
2018-06-24T14:32:03.963Z,15
2018-06-24T14:33:04.540Z,15
2018-06-24T14:34:05.118Z,15
2018-06-24T14:35:05.694Z,15
2018-06-24T14:36:06.270Z,15